首页
METAR-TAF:

METAR-TAF

机场 :

石家庄正定国际机场

石家庄市, 中华人民共和国

纬度: 38-16-51N, 经度: 114-41-48E, 海拔: 233米

当前天气观测

该预报发布于1小时和2分钟前的01:00 UTC
风速2节,风向东南
温度 23°C
湿度 83%
气压 1007 hPa
能見度: 1800
轻雾

METAR: ZBSJ 260100Z 13001MPS 1800 BR NSC 23/20 Q1007 NOSIG

时间: 10:02 (02:02 UTC)

预报

该预报发布于7小时和0分钟前的19:02 UTC
预报有效从26日的 00点(UTC)到 26日的 24点(UTC)
风速8节,风向北转西北
能見度: 1500
轻雾
成为
从 26日的 02点(UTC)到 26日的 03点(UTC)
能見度: 3500

TAF: ZBSJ 251902Z 2600/2624 33004MPS 1500 BR NSC TX28/2606Z TN16/2621Z BECMG 2602/2603 3500 HZ

超过4000个机场的气象观测和天气预报(METAR&TAF报告)。

可查询的气象台以黄色和红色小点在地图上表示。

将鼠标移到小点上方,可查看气象台名称。

然后点击查看天气观测和预报。

如需切换地图:点击带黑十字的绿色按钮放大地图;点击带横线的绿色按钮缩小地图;或者点击绿色箭头查看邻近地区的地图。


METAR-TAF: